Time;durP1;ratioP1;P1;durP2;ratioP2;P2;SDS_P1;SDS_P2;PMS_P1;PMS_P2;Temp;Humidity;BMP_temperature;BMP_pressure;BME280_temperature;BME280_humidity;BME280_pressure;Samples;Min_cycle;Max_cycle;Signal;HPM_P1;HPM_P2
2022/03/01 00:02:04;;;;;;;31.13;18.00;;;;;;;2.69;64.41;102645.16;5074741;28;20032;-69
2022/03/01 00:04:29;;;;;;;30.30;17.45;;;;;;;2.69;64.19;102642.56;5075055;28;20027;-69
2022/03/01 00:06:55;;;;;;;31.02;18.13;;;;;;;2.76;65.63;102643.03;5074368;28;20099;-69
2022/03/01 00:09:20;;;;;;;31.35;18.50;;;;;;;2.64;67.62;102649.19;5074431;28;20379;-69
2022/03/01 00:11:45;;;;;;;31.02;18.33;;;;;;;2.53;69.33;102646.75;5074610;28;20103;-69
2022/03/01 00:14:11;;;;;;;30.75;18.35;;;;;;;2.47;72.05;102650.69;5074315;28;20051;-69
2022/03/01 00:16:36;;;;;;;31.35;18.88;;;;;;;2.28;71.58;102645.94;5074396;28;20391;-69
2022/03/01 00:19:02;;;;;;;30.55;18.00;;;;;;;2.14;69.44;102643.31;5074191;28;20043;-70
2022/03/01 00:21:30;;;;;;;31.20;18.73;;;;;;;2.08;71.57;102649.03;5074095;28;20464;-69
2022/03/01 00:23:56;;;;;;;31.42;18.80;;;;;;;2.13;72.43;102643.22;5074305;28;20490;-69
2022/03/01 00:26:22;;;;;;;32.13;19.90;;;;;;;1.96;73.01;102645.56;5073970;28;20021;-70
2022/03/01 00:28:47;;;;;;;32.55;19.50;;;;;;;1.89;74.78;102640.72;5074233;28;20041;-70
2022/03/01 00:31:13;;;;;;;31.42;18.83;;;;;;;1.78;73.54;102641.69;5074388;28;20032;-69
2022/03/01 00:33:39;;;;;;;30.48;18.23;;;;;;;1.65;72.43;102637.38;5073921;28;20017;-69
2022/03/01 00:36:05;;;;;;;30.90;18.30;;;;;;;1.52;74.25;102638.22;5073944;28;20032;-69
2022/03/01 00:38:31;;;;;;;33.65;20.05;;;;;;;1.50;77.71;102645.91;5074037;28;20021;-70
2022/03/01 00:40:56;;;;;;;31.30;18.75;;;;;;;1.39;78.99;102647.75;5073702;28;20036;-70
2022/03/01 00:43:22;;;;;;;32.50;19.33;;;;;;;1.25;79.99;102643.25;5074097;28;20107;-69
2022/03/01 00:45:52;;;;;;;32.38;19.40;;;;;;;1.10;80.56;102647.41;5073740;28;20016;-69
2022/03/01 00:48:17;;;;;;;31.80;19.33;;;;;;;1.10;82.57;102642.19;5073721;28;20032;-70
2022/03/01 00:50:43;;;;;;;32.75;19.80;;;;;;;0.96;83.01;102647.31;5073374;28;20048;-69
2022/03/01 00:53:08;;;;;;;32.65;19.63;;;;;;;0.89;83.86;102654.56;5073819;28;20475;-70
2022/03/01 00:55:34;;;;;;;32.33;19.63;;;;;;;0.80;84.32;102652.19;5073608;28;20111;-70
2022/03/01 00:58:00;;;;;;;32.58;19.75;;;;;;;0.75;84.24;102644.06;5073490;28;20028;-69
2022/03/01 01:00:26;;;;;;;32.42;19.55;;;;;;;0.72;85.39;102648.13;5073514;28;20020;-70
2022/03/01 01:02:52;;;;;;;31.67;19.08;;;;;;;0.71;87.87;102644.59;5073431;28;20032;-70
2022/03/01 01:05:17;;;;;;;32.92;19.48;;;;;;;0.72;88.51;102653.34;5073470;28;20023;-69
2022/03/01 01:07:43;;;;;;;31.67;18.92;;;;;;;0.77;89.13;102652.91;5073506;28;20516;-70
2022/03/01 01:10:09;;;;;;;30.60;19.33;;;;;;;0.71;88.78;102651.53;5073428;28;20024;-69
2022/03/01 01:12:35;;;;;;;31.60;19.42;;;;;;;0.62;89.50;102651.75;5073223;28;20467;-69
2022/03/01 01:15:01;;;;;;;32.10;19.73;;;;;;;0.48;89.92;102640.31;5073229;28;20028;-69
2022/03/01 01:17:26;;;;;;;31.52;18.88;;;;;;;0.42;90.38;102648.56;5073061;28;20028;-69
2022/03/01 01:19:52;;;;;;;32.95;20.05;;;;;;;0.46;91.35;102641.91;5073550;28;20475;-67
2022/03/01 01:25:01;;;;;;;32.92;20.42;;;;;;;0.36;91.37;102649.81;5073028;28;20407;-68
2022/03/01 01:27:27;;;;;;;31.88;19.88;;;;;;;0.32;93.74;102647.00;5072816;28;20033;-68
2022/03/01 01:29:52;;;;;;;32.17;20.13;;;;;;;0.37;94.02;102641.25;5072996;28;20442;-68
2022/03/01 01:32:18;;;;;;;32.33;19.77;;;;;;;0.31;93.80;102645.19;5073056;28;20031;-69
2022/03/01 01:34:43;;;;;;;31.95;19.65;;;;;;;0.32;95.10;102647.00;5072825;28;20036;-68
2022/03/01 01:37:08;;;;;;;33.22;20.73;;;;;;;0.23;94.32;102645.41;5073276;28;20103;-68
2022/03/01 01:39:34;;;;;;;33.55;21.02;;;;;;;0.24;95.03;102640.31;5072702;28;20021;-69
2022/03/01 01:41:59;;;;;;;32.40;20.23;;;;;;;0.30;96.26;102645.97;5072802;28;20498;-69
2022/03/01 01:44:24;;;;;;;32.40;19.65;;;;;;;0.25;97.22;102643.81;5072848;28;20025;-69
2022/03/01 01:46:50;;;;;;;31.20;19.80;;;;;;;0.25;97.47;102643.81;5072491;28;20025;-68
2022/03/01 01:49:15;;;;;;;33.58;20.40;;;;;;;0.29;96.92;102641.56;5071394;28;20039;-70
2022/03/01 01:51:40;;;;;;;33.88;21.20;;;;;;;0.17;95.44;102643.22;5072539;28;20041;-68
2022/03/01 01:54:06;;;;;;;34.15;20.98;;;;;;;0.23;95.08;102635.00;5072612;28;20029;-69
2022/03/01 01:56:32;;;;;;;34.70;20.77;;;;;;;0.27;97.00;102637.94;5072732;28;20468;-69
2022/03/01 01:58:57;;;;;;;32.92;20.60;;;;;;;0.22;97.59;102636.69;5072505;28;20016;-68
2022/03/01 02:01:23;;;;;;;33.15;20.63;;;;;;;0.24;98.31;102642.91;5072386;28;20029;-69
2022/03/01 02:03:49;;;;;;;33.40;19.80;;;;;;;0.21;97.29;102642.69;5071159;28;20468;-69
2022/03/01 02:06:15;;;;;;;32.88;20.35;;;;;;;0.24;98.41;102632.50;5072760;28;20021;-69
2022/03/01 02:08:40;;;;;;;32.13;19.50;;;;;;;0.22;98.78;102638.38;5072429;28;20130;-68
2022/03/01 02:11:05;;;;;;;33.55;20.13;;;;;;;0.23;96.83;102625.47;5072582;28;20147;-69
2022/03/01 02:13:31;;;;;;;31.40;19.15;;;;;;;0.34;95.69;102636.69;5071244;28;20032;-69
2022/03/01 02:15:57;;;;;;;32.10;19.48;;;;;;;0.31;93.55;102629.56;5072348;28;20466;-69
2022/03/01 02:18:23;;;;;;;31.80;19.02;;;;;;;0.27;96.36;102624.91;5072628;28;20031;-69
2022/03/01 02:20:48;;;;;;;31.65;19.30;;;;;;;0.42;98.52;102626.84;5076276;28;20066;-69
2022/03/01 02:23:13;;;;;;;32.17;19.40;;;;;;;0.43;96.19;102636.47;5076484;28;20037;-68
2022/03/01 02:25:39;;;;;;;31.90;19.45;;;;;;;0.54;97.69;102627.78;5075230;28;20056;-68
2022/03/01 02:28:05;;;;;;;31.95;19.77;;;;;;;0.51;98.66;102632.72;5076309;28;20032;-69
2022/03/01 02:30:31;;;;;;;33.10;20.40;;;;;;;0.47;98.59;102636.81;5076357;28;20028;-69
2022/03/01 02:32:57;;;;;;;32.88;21.00;;;;;;;0.44;98.66;102639.19;5076333;28;20029;-69
2022/03/01 02:35:23;;;;;;;33.38;20.75;;;;;;;0.41;98.08;102632.84;5076170;28;20379;-69
2022/03/01 02:37:49;;;;;;;33.85;20.77;;;;;;;0.46;97.54;102631.50;5076343;28;20031;-69
2022/03/01 02:40:14;;;;;;;33.38;20.67;;;;;;;0.38;98.40;102628.34;5076177;28;20016;-69
2022/03/01 02:42:42;;;;;;;32.88;20.67;;;;;;;0.40;98.98;102634.56;5076145;28;20074;-68
2022/03/01 02:45:10;;;;;;;34.05;20.92;;;;;;;0.45;98.51;102633.22;5076213;28;20029;-68
2022/03/01 02:47:36;;;;;;;33.50;21.40;;;;;;;0.38;96.71;102617.00;5075927;28;20103;-69
2022/03/01 02:50:02;;;;;;;35.72;21.52;;;;;;;0.38;96.62;102619.59;5075906;28;20036;-68
2022/03/01 02:52:27;;;;;;;33.17;20.90;;;;;;;0.40;95.90;102623.25;5075849;28;20037;-70
2022/03/01 02:54:52;;;;;;;31.67;19.95;;;;;;;0.38;95.20;102609.19;5076155;28;20104;-70
2022/03/01 02:57:18;;;;;;;32.80;21.02;;;;;;;0.41;95.62;102615.56;5075744;28;20043;-70
2022/03/01 02:59:45;;;;;;;32.80;19.77;;;;;;;0.43;94.64;102607.84;5076114;28;20503;-70
2022/03/01 03:02:12;;;;;;;32.17;19.73;;;;;;;0.45;94.35;102601.06;5075573;28;20046;-70
2022/03/01 03:04:38;;;;;;;32.53;20.13;;;;;;;0.56;97.07;102613.16;5075943;28;20059;-70
2022/03/01 03:07:04;;;;;;;31.80;20.08;;;;;;;0.59;97.16;102615.09;5075854;28;20112;-70
2022/03/01 03:09:29;;;;;;;32.42;20.95;;;;;;;0.56;97.93;102610.56;5074218;28;20463;-70
2022/03/01 03:11:55;;;;;;;33.05;21.20;;;;;;;0.60;98.77;102609.09;5075491;28;20068;-70
2022/03/01 03:14:20;;;;;;;31.95;19.20;;;;;;;0.67;95.82;102608.72;5075730;28;20033;-70
2022/03/01 03:16:45;;;;;;;31.00;19.27;;;;;;;0.71;93.79;102602.06;5075559;28;20021;-70
2022/03/01 03:19:15;;;;;;;33.47;18.80;;;;;;;0.84;94.29;102609.97;5075251;28;20028;-70
2022/03/01 03:21:40;;;;;;;31.73;19.35;;;;;;;0.90;93.95;102607.78;5075583;28;20029;-70
2022/03/01 03:24:05;;;;;;;31.02;19.27;;;;;;;0.91;93.55;102608.72;5075230;28;20547;-70
2022/03/01 03:26:31;;;;;;;31.63;19.73;;;;;;;0.86;96.42;102611.00;5075417;28;20510;-70
2022/03/01 03:28:56;;;;;;;31.63;19.20;;;;;;;0.86;96.86;102605.78;5075670;28;20029;-70
2022/03/01 03:31:22;;;;;;;32.03;19.50;;;;;;;0.82;96.30;102604.66;5075109;28;20364;-70
2022/03/01 03:33:47;;;;;;;32.80;20.30;;;;;;;0.81;95.96;102604.53;5074923;28;20029;-69
2022/03/01 03:36:12;;;;;;;33.10;20.35;;;;;;;0.76;95.59;102603.28;5075449;28;20020;-69
2022/03/01 03:38:38;;;;;;;33.72;20.77;;;;;;;0.71;94.94;102604.66;5075002;28;20021;-69
2022/03/01 03:41:03;;;;;;;33.50;20.58;;;;;;;0.78;96.04;102604.31;5075355;28;20455;-69
2022/03/01 03:43:28;;;;;;;34.17;21.02;;;;;;;0.79;95.26;102603.53;5075037;28;20017;-70
2022/03/01 03:45:54;;;;;;;33.65;21.55;;;;;;;0.76;95.63;102605.88;5074923;28;20059;-70
2022/03/01 03:48:19;;;;;;;33.35;20.98;;;;;;;0.79;97.06;102608.75;5075012;28;20029;-69
2022/03/01 03:50:45;;;;;;;34.58;20.52;;;;;;;0.71;95.21;102607.28;5074646;28;20020;-69
2022/03/01 03:53:11;;;;;;;37.58;21.50;;;;;;;0.62;93.53;102611.00;5073103;28;20079;-69
2022/03/01 03:55:37;;;;;;;39.97;23.50;;;;;;;0.63;95.40;102611.94;5075097;28;20048;-69
2022/03/01 03:58:02;;;;;;;37.72;23.35;;;;;;;0.58;96.29;102608.97;5075001;28;20024;-69
2022/03/01 04:00:27;;;;;;;40.60;25.05;;;;;;;0.55;96.06;102608.75;5074741;28;20070;-69
2022/03/01 04:02:53;;;;;;;38.85;23.17;;;;;;;0.56;97.15;102614.88;5074846;28;20392;-70
2022/03/01 04:05:19;;;;;;;35.15;22.20;;;;;;;0.52;97.20;102613.72;5074521;28;20067;-69
2022/03/01 04:07:46;;;;;;;36.80;23.10;;;;;;;0.52;98.77;102611.13;5074722;28;20020;-69
2022/03/01 04:10:12;;;;;;;37.00;22.67;;;;;;;0.55;99.25;102621.75;5074637;28;20028;-69
2022/03/01 04:12:38;;;;;;;35.90;21.85;;;;;;;0.66;98.87;102617.34;5074439;28;20433;-70
2022/03/01 04:15:05;;;;;;;32.70;20.52;;;;;;;0.67;100.00;102603.53;5074357;28;20028;-70
2022/03/01 04:17:30;;;;;;;35.08;21.48;;;;;;;0.68;100.00;102611.47;5074385;28;20077;-71
2022/03/01 04:19:56;;;;;;;34.53;21.67;;;;;;;0.66;100.00;102612.16;5074683;28;20024;-70
2022/03/01 04:22:22;;;;;;;34.20;21.38;;;;;;;0.67;100.00;102614.88;5074165;28;20037;-70
2022/03/01 04:24:47;;;;;;;34.78;21.67;;;;;;;0.72;100.00;102622.09;5074573;28;20036;-71
2022/03/01 04:27:12;;;;;;;33.70;20.83;;;;;;;0.78;100.00;102613.03;5074065;28;20032;-71
2022/03/01 04:29:38;;;;;;;35.35;21.70;;;;;;;0.80;97.16;102614.06;5074335;28;20115;-70
2022/03/01 04:32:03;;;;;;;35.85;21.88;;;;;;;0.88;97.28;102614.59;5074382;28;20028;-71
2022/03/01 04:34:29;;;;;;;36.42;22.08;;;;;;;0.86;99.80;102621.41;5074196;28;20031;-70
2022/03/01 04:36:54;;;;;;;32.90;19.73;;;;;;;0.97;95.00;102614.34;5074096;28;20025;-70
2022/03/01 04:39:20;;;;;;;34.45;21.33;;;;;;;0.96;97.08;102618.66;5073906;28;20025;-71
2022/03/01 04:41:46;;;;;;;32.30;19.60;;;;;;;0.99;94.53;102618.88;5073412;28;20044;-71
2022/03/01 04:44:11;;;;;;;32.75;19.88;;;;;;;1.03;91.76;102613.09;5074036;28;20107;-70
2022/03/01 04:46:36;;;;;;;33.08;20.65;;;;;;;0.97;96.61;102606.53;5072381;28;20028;-70
2022/03/01 04:49:03;;;;;;;33.70;20.30;;;;;;;0.98;96.83;102617.06;5073730;28;20112;-71
2022/03/01 04:51:29;;;;;;;36.55;21.08;;;;;;;0.94;97.81;102607.22;5073591;28;20097;-70
2022/03/01 04:53:54;;;;;;;33.55;20.73;;;;;;;0.84;96.53;102610.84;5073615;28;20032;-70
2022/03/01 04:56:20;;;;;;;33.92;20.55;;;;;;;0.89;99.52;102606.00;5073489;28;20486;-69
2022/03/01 04:58:45;;;;;;;33.40;20.65;;;;;;;0.90;99.70;102604.28;5073846;28;20052;-69
2022/03/01 05:01:11;;;;;;;33.63;20.95;;;;;;;0.91;99.90;102600.91;5073433;28;20032;-72
2022/03/01 05:03:36;;;;;;;34.38;20.98;;;;;;;0.89;100.00;102603.41;5073441;28;20025;-70
2022/03/01 05:06:02;;;;;;;34.88;20.38;;;;;;;0.89;99.91;102603.41;5073417;28;20062;-70
2022/03/01 05:08:30;;;;;;;33.53;21.02;;;;;;;0.86;98.48;102600.56;5073133;28;20033;-69
2022/03/01 05:10:57;;;;;;;32.78;20.48;;;;;;;0.96;98.10;102613.47;5073396;28;20020;-70
2022/03/01 05:13:22;;;;;;;34.38;21.02;;;;;;;1.02;99.09;102605.16;5073373;28;20063;-69
2022/03/01 05:15:48;;;;;;;33.45;21.13;;;;;;;0.93;99.42;102599.31;5073245;28;20028;-70
2022/03/01 05:18:13;;;;;;;33.22;20.73;;;;;;;0.97;100.00;102598.72;5073351;28;20029;-70
2022/03/01 05:20:38;;;;;;;32.97;19.88;;;;;;;0.94;99.80;102607.22;5073014;28;20032;-70
2022/03/01 05:23:04;;;;;;;34.08;21.13;;;;;;;0.92;98.65;102601.00;5072918;28;20077;-70
2022/03/01 05:25:29;;;;;;;33.75;20.70;;;;;;;0.87;99.12;102607.56;5073441;28;20081;-69
2022/03/01 05:27:55;;;;;;;33.20;20.35;;;;;;;0.89;99.29;102595.59;5073107;28;20036;-69
2022/03/01 05:30:21;;;;;;;34.22;21.48;;;;;;;0.84;96.16;102586.53;5073200;28;20021;-70
2022/03/01 05:32:50;;;;;;;34.78;20.80;;;;;;;0.81;92.76;102581.09;5073132;28;20028;-69
2022/03/01 05:35:17;;;;;;;33.63;19.75;;;;;;;0.85;90.54;102581.44;5069076;28;20477;-70
2022/03/01 05:37:44;;;;;;;32.83;20.00;;;;;;;0.88;90.45;102583.34;5072694;28;20123;-69
2022/03/01 05:40:12;;;;;;;33.03;20.38;;;;;;;0.88;91.31;102582.47;5073198;28;20376;-69
2022/03/01 05:42:38;;;;;;;32.50;19.75;;;;;;;0.83;90.88;102582.09;5072653;28;20463;-70
2022/03/01 05:45:04;;;;;;;32.67;18.80;;;;;;;0.78;89.64;102575.69;5072683;28;20020;-70
2022/03/01 05:47:30;;;;;;;32.42;19.88;;;;;;;0.78;89.97;102573.97;5072745;28;20490;-69
2022/03/01 05:49:56;;;;;;;33.80;20.58;;;;;;;0.73;92.56;102577.03;5072933;28;20106;-69
2022/03/01 05:52:21;;;;;;;33.33;20.75;;;;;;;0.64;92.26;102572.06;5072290;28;20483;-70
2022/03/01 05:54:47;;;;;;;34.95;21.00;;;;;;;0.58;93.85;102572.53;5072153;28;20166;-69
2022/03/01 05:57:13;;;;;;;32.92;20.48;;;;;;;0.64;95.92;102578.19;5072751;28;20501;-69
2022/03/01 05:59:38;;;;;;;32.00;20.40;;;;;;;0.61;95.89;102577.97;5072878;28;20074;-70
2022/03/01 06:02:03;;;;;;;34.05;20.40;;;;;;;0.48;97.14;102580.47;5072778;28;20445;-69
2022/03/01 06:04:29;;;;;;;33.65;19.65;;;;;;;0.53;92.78;102571.31;5072787;28;20379;-69
2022/03/01 06:06:54;;;;;;;33.35;20.48;;;;;;;0.48;92.40;102570.03;5072391;28;20028;-70
2022/03/01 06:09:19;;;;;;;34.25;21.05;;;;;;;0.50;93.81;102564.16;5072466;28;20383;-69
2022/03/01 06:11:45;;;;;;;34.45;20.30;;;;;;;0.48;90.74;102576.19;5072601;28;20391;-69
2022/03/01 06:14:10;;;;;;;31.85;19.08;;;;;;;0.55;90.02;102569.69;5072590;28;20021;-70
2022/03/01 06:16:36;;;;;;;36.25;20.88;;;;;;;0.60;94.38;102570.97;5072547;28;20387;-70
2022/03/01 06:19:01;;;;;;;33.95;21.00;;;;;;;0.37;94.60;102573.59;5072415;28;20028;-69
2022/03/01 06:21:27;;;;;;;34.28;21.45;;;;;;;0.40;95.48;102566.00;5072511;28;20054;-69
2022/03/01 06:23:53;;;;;;;33.83;20.70;;;;;;;0.34;95.12;102575.16;5072306;28;20040;-70
2022/03/01 06:26:18;;;;;;;39.63;22.42;;;;;;;0.34;93.82;102567.34;5072235;28;20032;-69
2022/03/01 06:28:43;;;;;;;33.13;21.20;;;;;;;0.32;93.91;102568.94;5072379;28;20079;-70
2022/03/01 06:31:10;;;;;;;33.58;21.25;;;;;;;0.33;92.97;102570.72;5072445;28;20060;-70
2022/03/01 06:33:35;;;;;;;33.78;21.33;;;;;;;0.36;92.85;102579.56;5070571;28;20070;-70
2022/03/01 06:36:01;;;;;;;35.55;22.00;;;;;;;0.40;95.22;102586.81;5068117;28;20040;-70
2022/03/01 06:38:26;;;;;;;35.15;21.17;;;;;;;0.34;94.72;102592.47;5070584;28;20025;-70
2022/03/01 06:40:55;;;;;;;35.05;21.73;;;;;;;0.36;95.55;102600.38;5070773;28;20491;-69
2022/03/01 06:43:21;;;;;;;34.10;21.60;;;;;;;0.45;98.24;102601.06;5070978;28;20521;-70
2022/03/01 06:45:47;;;;;;;37.00;22.92;;;;;;;0.37;98.24;102603.09;5071050;28;20080;-70
2022/03/01 06:48:12;;;;;;;36.50;23.15;;;;;;;0.40;98.71;102589.41;5069835;28;20036;-71
2022/03/01 06:50:38;;;;;;;35.45;22.13;;;;;;;0.44;98.84;102605.38;5070630;28;20040;-71
2022/03/01 06:53:03;;;;;;;38.28;23.05;;;;;;;0.53;100.00;102602.53;5070561;28;20045;-71
2022/03/01 06:55:29;;;;;;;37.42;22.92;;;;;;;0.59;98.20;102602.97;5070516;28;20044;-70
2022/03/01 06:57:55;;;;;;;36.63;22.55;;;;;;;0.67;97.70;102620.06;5070143;28;20074;-70
2022/03/01 07:00:20;;;;;;;36.25;22.73;;;;;;;0.75;95.79;102611.91;5070249;28;20059;-70
2022/03/01 07:02:46;;;;;;;35.15;21.77;;;;;;;0.83;92.00;102611.66;5070096;28;20459;-70
2022/03/01 07:05:14;;;;;;;35.15;21.75;;;;;;;0.90;90.25;102613.00;5071912;28;20476;-69
2022/03/01 07:07:40;;;;;;;35.35;21.58;;;;;;;0.98;89.35;102617.06;5073670;28;20384;-70
2022/03/01 07:10:07;;;;;;;35.42;21.88;;;;;;;1.03;89.37;102613.09;5074272;28;20028;-70
2022/03/01 07:12:33;;;;;;;34.47;21.70;;;;;;;1.10;88.78;102616.16;5073976;28;20055;-70
2022/03/01 07:14:58;;;;;;;35.58;21.95;;;;;;;1.17;89.45;102618.38;5072746;28;20064;-69
2022/03/01 07:17:24;;;;;;;36.10;21.95;;;;;;;1.24;88.59;102618.03;5073719;28;20032;-69
2022/03/01 07:19:49;;;;;;;34.88;21.65;;;;;;;1.40;86.39;102614.81;5073964;28;20082;-68
2022/03/01 07:22:15;;;;;;;38.03;23.13;;;;;;;1.47;85.74;102609.22;5074325;28;20024;-68
2022/03/01 07:24:41;;;;;;;35.92;22.60;;;;;;;1.56;85.56;102611.56;5073601;28;20029;-69
2022/03/01 07:27:06;;;;;;;36.95;22.25;;;;;;;1.68;84.66;102619.31;5073248;28;20021;-68
2022/03/01 07:29:31;;;;;;;36.20;23.23;;;;;;;1.83;82.23;102624.69;5073888;28;20028;-70
2022/03/01 07:31:58;;;;;;;35.50;22.33;;;;;;;1.96;78.18;102622.09;5073959;28;20047;-69
2022/03/01 07:34:23;;;;;;;36.38;22.08;;;;;;;2.12;77.08;102621.44;5073659;28;20028;-69
2022/03/01 07:36:49;;;;;;;34.33;21.90;;;;;;;2.25;76.31;102624.03;5073033;28;20028;-69
2022/03/01 07:39:14;;;;;;;35.13;21.92;;;;;;;2.35;75.38;102627.28;5074667;28;20032;-70
2022/03/01 07:41:39;;;;;;;35.17;21.58;;;;;;;2.44;74.19;102633.09;5073540;28;20075;-69
2022/03/01 07:44:05;;;;;;;35.47;22.50;;;;;;;2.55;74.74;102646.84;5075057;28;20023;-69
2022/03/01 07:46:30;;;;;;;35.03;21.70;;;;;;;2.63;74.42;102644.75;5075136;28;20497;-69
2022/03/01 07:48:55;;;;;;;34.95;22.50;;;;;;;2.64;72.85;102637.03;5075141;28;20041;-69
2022/03/01 07:51:21;;;;;;;35.08;21.42;;;;;;;2.64;72.22;102633.53;5074829;28;20040;-69
2022/03/01 07:53:46;;;;;;;34.53;21.42;;;;;;;2.64;71.33;102626.59;5074931;28;20035;-69
2022/03/01 07:56:13;;;;;;;34.70;21.40;;;;;;;2.61;71.37;102627.28;5069637;28;20166;-70
2022/03/01 07:58:38;;;;;;;37.83;21.83;;;;;;;2.63;71.69;102624.78;5072704;28;20109;-70
2022/03/01 08:01:04;;;;;;;34.28;21.33;;;;;;;2.58;72.75;102619.25;5073155;28;20544;-70
2022/03/01 08:03:29;;;;;;;35.70;21.90;;;;;;;2.54;73.78;102624.19;5071980;28;20021;-70
2022/03/01 08:05:54;;;;;;;35.08;21.88;;;;;;;2.51;71.95;102630.09;5072860;28;20420;-70
2022/03/01 08:08:20;;;;;;;33.85;20.88;;;;;;;2.56;71.94;102633.94;5073222;28;20518;-70
2022/03/01 08:10:45;;;;;;;34.80;21.58;;;;;;;2.59;70.17;102639.34;5071875;28;20038;-71
2022/03/01 08:13:11;;;;;;;33.38;19.98;;;;;;;2.68;70.08;102644.28;5073347;28;20020;-70
2022/03/01 08:15:38;;;;;;;34.58;21.38;;;;;;;2.78;70.60;102641.44;5072301;28;20024;-70
2022/03/01 08:18:03;;;;;;;33.97;21.63;;;;;;;2.93;69.97;102632.78;5071866;28;20028;-71
2022/03/01 08:20:29;;;;;;;33.42;20.40;;;;;;;3.07;67.87;102637.19;5073280;28;20019;-70
2022/03/01 08:22:54;;;;;;;34.10;21.45;;;;;;;3.14;68.45;102635.84;5072300;28;20146;-70
2022/03/01 08:25:20;;;;;;;33.80;21.30;;;;;;;3.27;68.97;102648.00;5072806;28;20033;-71
2022/03/01 08:27:46;;;;;;;35.13;21.42;;;;;;;3.38;69.30;102646.97;5071104;28;20027;-70
2022/03/01 08:30:12;;;;;;;35.25;21.83;;;;;;;3.49;68.93;102647.63;5072625;28;20029;-69
2022/03/01 08:32:38;;;;;;;33.70;20.52;;;;;;;3.53;67.47;102649.63;5072196;28;20082;-69
2022/03/01 08:35:04;;;;;;;34.85;20.90;;;;;;;3.65;67.36;102655.59;5072694;28;20032;-70
2022/03/01 08:37:30;;;;;;;32.78;20.83;;;;;;;3.68;66.52;102654.88;5072406;28;20033;-69
2022/03/01 08:39:56;;;;;;;33.00;20.92;;;;;;;3.77;66.63;102641.47;5072113;28;21158;-69
2022/03/01 08:42:21;;;;;;;32.78;20.20;;;;;;;3.81;64.31;102651.31;5072268;28;20356;-69
2022/03/01 08:44:46;;;;;;;34.75;20.58;;;;;;;3.91;64.81;102647.53;5072436;28;20028;-69
2022/03/01 08:47:12;;;;;;;33.08;19.77;;;;;;;4.01;63.48;102655.13;5072696;28;20028;-69
2022/03/01 08:49:37;;;;;;;34.00;20.83;;;;;;;4.11;64.20;102654.88;5072301;28;20024;-69
2022/03/01 08:52:03;;;;;;;34.40;20.83;;;;;;;4.18;64.60;102664.91;5071274;28;20685;-69
2022/03/01 08:54:28;;;;;;;33.38;20.42;;;;;;;4.27;64.23;102666.25;5071554;28;20068;-70
2022/03/01 08:56:54;;;;;;;33.85;20.40;;;;;;;4.46;62.30;102661.28;5071936;28;20025;-69
2022/03/01 08:59:21;;;;;;;33.63;20.08;;;;;;;4.68;62.63;102670.38;5072011;28;20033;-69
2022/03/01 09:01:46;;;;;;;33.92;21.63;;;;;;;4.96;61.90;102677.19;5072353;28;20028;-69
2022/03/01 09:04:11;;;;;;;33.78;21.15;;;;;;;5.31;61.26;102676.53;5069498;28;20033;-70
2022/03/01 09:06:37;;;;;;;32.67;19.77;;;;;;;5.44;58.36;102674.59;5071347;28;20383;-69
2022/03/01 09:09:02;;;;;;;31.98;19.30;;;;;;;5.73;58.25;102677.06;5071853;28;20062;-69
2022/03/01 09:11:27;;;;;;;34.33;20.25;;;;;;;5.87;57.49;102680.44;5071852;28;20031;-70
2022/03/01 09:13:53;;;;;;;34.10;19.50;;;;;;;6.07;58.37;102685.84;5072996;28;20475;-72
2022/03/01 09:16:18;;;;;;;34.50;19.25;;;;;;;6.50;57.63;102674.91;5073583;28;20024;-71
2022/03/01 09:18:44;;;;;;;31.58;18.70;;;;;;;6.56;53.67;102675.22;5073442;28;20471;-70
2022/03/01 09:21:09;;;;;;;32.90;18.00;;;;;;;6.47;54.74;102659.00;5073437;28;20029;-71
2022/03/01 09:23:35;;;;;;;31.52;18.63;;;;;;;6.23;53.35;102669.16;5072973;28;20020;-70
2022/03/01 09:26:01;;;;;;;31.48;17.83;;;;;;;6.16;53.24;102662.72;5072928;28;20074;-70
2022/03/01 09:28:27;;;;;;;31.27;18.55;;;;;;;6.01;52.39;102669.78;5070633;28;20511;-71
2022/03/01 09:30:53;;;;;;;32.13;18.65;;;;;;;5.88;53.17;102666.50;5071663;28;20115;-72
2022/03/01 09:33:18;;;;;;;30.83;18.45;;;;;;;5.81;54.37;102671.31;5071513;28;20051;-69
2022/03/01 09:35:44;;;;;;;31.27;17.95;;;;;;;5.79;53.76;102665.97;5065466;28;20032;-69
2022/03/01 09:38:09;;;;;;;32.50;18.15;;;;;;;5.81;54.68;102664.38;5071722;28;20071;-69
2022/03/01 09:40:35;;;;;;;30.92;18.35;;;;;;;6.03;54.80;102668.13;5071277;28;20013;-70
2022/03/01 09:43:01;;;;;;;31.83;18.92;;;;;;;6.20;53.79;102672.53;5071639;28;20031;-69
2022/03/01 09:45:27;;;;;;;30.48;18.73;;;;;;;6.37;54.47;102657.63;5072450;28;20098;-69
2022/03/01 09:47:52;;;;;;;31.80;18.00;;;;;;;6.52;51.54;102667.09;5072288;28;20488;-70
2022/03/01 09:50:21;;;;;;;31.25;17.75;;;;;;;6.52;53.34;102677.63;5072809;28;20068;-70
2022/03/01 09:52:47;;;;;;;30.23;17.88;;;;;;;6.65;51.59;102690.53;5068305;28;20075;-70
2022/03/01 09:55:13;;;;;;;31.52;17.92;;;;;;;6.62;51.24;102679.88;5070896;28;20044;-70
2022/03/01 09:57:38;;;;;;;31.38;18.38;;;;;;;6.45;52.02;102677.31;5072638;28;20213;-70
2022/03/01 10:00:06;;;;;;;32.45;18.30;;;;;;;6.42;51.95;102674.53;5072475;28;20025;-71
2022/03/01 10:02:39;;;;;;;31.42;19.05;;;;;;;6.39;51.73;102689.22;5072453;28;20059;-70
2022/03/01 10:05:05;;;;;;;30.98;18.27;;;;;;;6.40;51.56;102704.19;5072684;28;20033;-70
2022/03/01 10:07:32;;;;;;;30.83;18.50;;;;;;;6.35;54.17;102690.81;5072340;28;20054;-70
2022/03/01 10:10:08;;;;;;;31.38;18.05;;;;;;;6.37;52.36;102678.66;5072419;28;20035;-70
2022/03/01 10:12:34;;;;;;;32.63;18.25;;;;;;;6.43;52.26;102689.47;5072285;28;20108;-70
2022/03/01 10:15:06;;;;;;;32.35;18.35;;;;;;;6.55;53.66;102693.53;5072418;28;20115;-70
2022/03/01 10:17:41;;;;;;;31.45;18.38;;;;;;;6.74;54.23;102696.28;5072313;28;20032;-70
2022/03/01 10:20:18;;;;;;;31.25;18.52;;;;;;;6.86;52.67;102690.72;5072268;28;20029;-70
2022/03/01 10:22:53;;;;;;;30.63;18.15;;;;;;;7.16;52.80;102685.13;5072693;28;20035;-70
2022/03/01 10:25:21;;;;;;;31.02;18.48;;;;;;;7.37;51.27;102685.25;5068540;28;20021;-70
2022/03/01 10:27:49;;;;;;;32.60;19.10;;;;;;;7.39;49.84;102682.69;5068385;28;20059;-70
2022/03/01 10:30:32;;;;;;;29.98;17.85;;;;;;;7.51;50.40;102685.88;5072367;28;20387;-70
2022/03/01 10:33:06;;;;;;;30.45;18.08;;;;;;;7.60;49.82;102683.69;5069544;28;20028;-70
2022/03/01 10:35:32;;;;;;;31.33;18.38;;;;;;;7.84;48.97;102667.19;5072414;28;20028;-69
2022/03/01 10:37:59;;;;;;;31.40;18.20;;;;;;;8.24;48.86;102663.66;5072252;28;20013;-70
2022/03/01 10:40:27;;;;;;;31.48;18.02;;;;;;;8.49;48.36;102664.72;5073556;28;20022;-70
2022/03/01 10:43:14;;;;;;;31.35;17.73;;;;;;;8.68;47.59;102662.03;5074078;28;20028;-70
2022/03/01 10:45:44;;;;;;;30.95;17.95;;;;;;;8.85;47.44;102665.38;5072234;28;20387;-70
2022/03/01 10:48:12;;;;;;;30.33;17.88;;;;;;;9.35;45.53;102669.91;5072657;28;20078;-70
2022/03/01 10:50:39;;;;;;;30.25;17.30;;;;;;;9.62;44.19;102666.53;5071683;28;20031;-70
2022/03/01 10:53:06;;;;;;;29.92;16.30;;;;;;;9.45;41.91;102668.53;5070016;28;20554;-70
2022/03/01 10:55:33;;;;;;;31.60;17.45;;;;;;;9.32;43.39;102677.72;5076291;28;20020;-70
2022/03/01 10:58:10;;;;;;;30.10;16.60;;;;;;;10.08;43.43;102684.06;5075750;28;20486;-70
2022/03/01 11:00:37;;;;;;;30.20;17.00;;;;;;;10.55;41.48;102686.59;5071665;28;20025;-70
2022/03/01 11:03:06;;;;;;;29.08;16.77;;;;;;;10.75;41.76;102682.84;5075608;28;20361;-71
2022/03/01 11:05:33;;;;;;;31.15;18.25;;;;;;;10.52;39.76;102691.78;5075820;28;20055;-70
2022/03/01 11:08:08;;;;;;;29.35;17.08;;;;;;;10.19;40.78;102687.97;5082677;28;20025;-70
2022/03/01 11:10:36;;;;;;;32.03;19.27;;;;;;;9.73;43.05;102691.59;5075598;28;20020;-69
2022/03/01 11:13:05;;;;;;;28.48;16.75;;;;;;;9.33;41.75;102684.78;5075494;28;20538;-69
2022/03/01 11:15:47;;;;;;;29.85;17.20;;;;;;;9.13;43.37;102689.28;5075700;28;20041;-70